Time;durP1;ratioP1;P1;durP2;ratioP2;P2;SDS_P1;SDS_P2;PMS_P1;PMS_P2;Temp;Humidity;BMP_temperature;BMP_pressure;BME280_temperature;BME280_humidity;BME280_pressure;Samples;Min_cycle;Max_cycle;Signal;HPM_P1;HPM_P2
2023/08/22 00:00:24;;;;;;;9.80;4.07;;;;;;;-145.18;100.00;46660.41;5022320;28;20025;-60
2023/08/22 00:02:49;;;;;;;6.73;4.37;;;;;;;-145.18;100.00;46660.41;5018558;28;20034;-60
2023/08/22 00:05:15;;;;;;;9.97;4.30;;;;;;;-145.18;100.00;46660.41;5022961;28;20393;-60
2023/08/22 00:07:42;;;;;;;11.53;4.90;;;;;;;-145.18;100.00;46660.41;5019712;28;20470;-60
2023/08/22 00:10:08;;;;;;;7.17;4.77;;;;;;;-145.18;100.00;46660.41;5024154;28;20489;-59
2023/08/22 00:12:34;;;;;;;7.37;3.87;;;;;;;-145.18;100.00;46660.41;5024870;28;20029;-60
2023/08/22 00:14:59;;;;;;;8.67;4.27;;;;;;;-145.18;100.00;46660.41;5025452;28;20037;-60
2023/08/22 00:17:24;;;;;;;8.63;5.17;;;;;;;-145.18;100.00;46660.41;5027715;28;20032;-60
2023/08/22 00:19:50;;;;;;;11.77;4.90;;;;;;;-145.18;100.00;46660.41;5025868;28;20045;-59
2023/08/22 00:22:16;;;;;;;10.27;5.20;;;;;;;-145.18;100.00;46660.41;5023800;28;20044;-62
2023/08/22 00:24:42;;;;;;;8.57;5.30;;;;;;;-145.18;100.00;46660.41;5021901;28;20021;-59
2023/08/22 00:27:07;;;;;;;13.00;5.73;;;;;;;-145.18;100.00;46656.50;5023778;28;20033;-60
2023/08/22 00:29:32;;;;;;;9.83;5.87;;;;;;;-145.18;100.00;46658.44;5027140;28;20036;-60
2023/08/22 00:31:58;;;;;;;10.07;6.43;;;;;;;-145.18;100.00;46658.44;5023352;28;20032;-60
2023/08/22 00:34:24;;;;;;;9.07;5.63;;;;;;;-145.18;100.00;46660.41;5022782;28;20131;-60
2023/08/22 00:36:50;;;;;;;8.87;5.20;;;;;;;-145.18;100.00;46658.44;5017490;28;20034;-60
2023/08/22 00:39:15;;;;;;;8.93;4.87;;;;;;;-145.18;100.00;46658.44;5014906;28;20101;-59
2023/08/22 00:41:40;;;;;;;12.63;5.70;;;;;;;-145.18;100.00;46656.50;5031028;28;20071;-60
2023/08/22 00:44:06;;;;;;;9.03;5.53;;;;;;;-145.18;100.00;46658.44;5020357;28;20054;-60
2023/08/22 00:46:31;;;;;;;9.37;5.10;;;;;;;-145.18;100.00;46660.41;5016122;28;20477;-59
2023/08/22 00:48:57;;;;;;;9.63;5.60;;;;;;;-145.18;100.00;46660.41;5016340;28;20037;-59
2023/08/22 00:51:23;;;;;;;8.83;5.17;;;;;;;-145.18;100.00;46660.41;5029139;28;20033;-60
2023/08/22 00:53:48;;;;;;;14.30;5.93;;;;;;;-145.18;100.00;46660.41;5023914;28;20037;-60
2023/08/22 00:56:15;;;;;;;10.57;5.50;;;;;;;-145.18;100.00;46660.41;5024138;28;20116;-60
2023/08/22 00:58:41;;;;;;;11.70;5.93;;;;;;;-145.18;100.00;46660.41;5024698;28;20037;-60
2023/08/22 01:01:06;;;;;;;5.93;4.80;;;;;;;-145.18;100.00;46660.41;5025162;28;20030;-60
2023/08/22 01:03:32;;;;;;;8.87;5.37;;;;;;;-145.18;100.00;46660.41;5029643;28;20041;-60
2023/08/22 01:06:39;;;;;;;11.47;5.77;;;;;;;-145.18;100.00;46660.41;5033168;28;20108;-60
2023/08/22 01:09:23;;;;;;;8.93;5.13;;;;;;;-145.18;100.00;46660.41;5028240;28;20065;-60
2023/08/22 01:11:51;;;;;;;8.67;4.70;;;;;;;-145.18;100.00;46660.41;5027413;28;20033;-60
2023/08/22 01:14:20;;;;;;;13.97;4.93;;;;;;;-145.18;100.00;46660.41;5029346;28;20021;-60
2023/08/22 01:16:48;;;;;;;8.70;6.27;;;;;;;-145.18;100.00;46660.41;5030642;28;20029;-60
2023/08/22 01:19:17;;;;;;;10.13;6.20;;;;;;;-145.18;100.00;46660.41;5021458;28;20390;-60
2023/08/22 01:21:50;;;;;;;9.77;6.43;;;;;;;-145.18;100.00;46660.41;5031384;28;20029;-59
2023/08/22 01:24:16;;;;;;;7.63;5.30;;;;;;;-145.18;100.00;46660.41;5032961;28;20037;-60
2023/08/22 01:26:41;;;;;;;11.43;7.10;;;;;;;-145.18;100.00;46658.44;5033940;28;20038;-60
2023/08/22 01:29:10;;;;;;;8.07;5.67;;;;;;;-145.18;100.00;46660.41;5028205;28;20104;-60
2023/08/22 01:31:41;;;;;;;10.30;5.70;;;;;;;-145.18;100.00;46660.41;5028027;28;20061;-60
2023/08/22 01:34:15;;;;;;;10.83;6.13;;;;;;;-145.18;100.00;46660.41;5033949;28;20116;-60
2023/08/22 01:36:44;;;;;;;11.67;6.00;;;;;;;-145.18;100.00;46660.41;5033107;28;20033;-60
2023/08/22 01:39:10;;;;;;;8.60;5.77;;;;;;;-145.18;100.00;46660.41;5023665;28;20017;-60
2023/08/22 01:41:37;;;;;;;13.83;5.93;;;;;;;-145.18;100.00;46660.41;5025572;28;20025;-60
2023/08/22 01:44:03;;;;;;;10.07;6.10;;;;;;;-145.18;100.00;46660.41;5034117;28;20049;-60
2023/08/22 01:46:29;;;;;;;9.77;5.50;;;;;;;-145.18;100.00;46658.44;5032556;28;20140;-60
2023/08/22 01:48:55;;;;;;;14.50;6.07;;;;;;;-145.18;100.00;46660.41;5032827;28;20087;-60
2023/08/22 01:51:20;;;;;;;10.10;6.47;;;;;;;-145.18;100.00;46660.41;5029929;28;20430;-60
2023/08/22 01:53:46;;;;;;;12.80;7.27;;;;;;;-145.18;100.00;46656.50;5030652;28;20041;-60
2023/08/22 01:56:11;;;;;;;14.87;7.67;;;;;;;-145.18;100.00;46660.41;5030417;28;20068;-60
2023/08/22 01:58:36;;;;;;;11.20;7.00;;;;;;;-145.18;100.00;46660.41;5033507;28;20108;-60
2023/08/22 02:01:12;;;;;;;12.53;7.70;;;;;;;-145.18;100.00;46660.41;5031855;28;20033;-60
2023/08/22 02:03:39;;;;;;;;;;;;;;;-145.18;100.00;46660.41;5034295;28;20033;-60
2023/08/22 02:06:05;;;;;;;13.00;7.43;;;;;;;-145.18;100.00;46660.41;5031929;28;19913;-60
2023/08/22 02:08:30;;;;;;;14.93;7.57;;;;;;;-145.18;100.00;46660.41;5031795;28;20117;-60
2023/08/22 02:10:56;;;;;;;14.27;7.87;;;;;;;-145.18;100.00;46660.41;5031376;28;20482;-60
2023/08/22 02:13:21;;;;;;;12.63;8.33;;;;;;;-145.18;100.00;46660.41;5031983;28;20377;-60
2023/08/22 02:15:47;;;;;;;12.20;8.40;;;;;;;-145.18;100.00;46660.41;5031477;28;20461;-60
2023/08/22 02:18:12;;;;;;;14.60;7.30;;;;;;;-145.18;100.00;46660.41;5031762;28;20025;-59
2023/08/22 02:20:38;;;;;;;16.20;8.67;;;;;;;-145.18;100.00;46660.41;5031242;28;20465;-59
2023/08/22 02:23:03;;;;;;;12.00;8.00;;;;;;;-145.18;100.00;46660.41;5033108;28;20044;-60
2023/08/22 02:25:31;;;;;;;9.10;6.60;;;;;;;-145.18;100.00;46660.41;5031408;28;20040;-60
2023/08/22 02:27:57;;;;;;;11.97;7.40;;;;;;;-145.18;100.00;46660.41;5030172;28;20041;-60
2023/08/22 02:30:22;;;;;;;11.20;7.30;;;;;;;-145.18;100.00;46660.41;5026351;28;20087;-60
2023/08/22 02:32:47;;;;;;;14.60;7.93;;;;;;;-145.18;100.00;46656.50;5023746;28;20117;-60
2023/08/22 02:35:13;;;;;;;11.10;7.57;;;;;;;-145.18;100.00;46660.41;5023429;28;20145;-60
2023/08/22 02:37:39;;;;;;;11.50;7.43;;;;;;;-145.18;100.00;46654.53;5028213;28;20061;-60
2023/08/22 02:40:08;;;;;;;8.93;6.03;;;;;;;-145.18;100.00;46658.44;5016180;28;20034;-60
2023/08/22 02:42:33;;;;;;;10.57;7.27;;;;;;;-145.18;100.00;46654.53;5030895;28;20489;-60
2023/08/22 02:44:59;;;;;;;11.33;7.40;;;;;;;-145.18;100.00;46656.50;5032728;28;20079;-59
2023/08/22 02:47:25;;;;;;;12.60;8.07;;;;;;;-145.18;100.00;46660.41;5033359;28;20065;-60
2023/08/22 02:49:50;;;;;;;13.17;7.13;;;;;;;-145.18;100.00;46658.44;5021187;28;20502;-60
2023/08/22 02:52:16;;;;;;;10.07;7.40;;;;;;;-145.18;100.00;46658.44;5020078;28;20164;-60
2023/08/22 02:54:41;;;;;;;11.27;7.80;;;;;;;-145.18;100.00;46650.63;5016775;28;20030;-60
2023/08/22 02:57:07;;;;;;;11.50;7.67;;;;;;;-145.18;100.00;46654.53;5022668;28;20041;-60
2023/08/22 02:59:33;;;;;;;13.50;8.07;;;;;;;-145.18;100.00;46658.44;5033317;28;20053;-60
2023/08/22 03:01:58;;;;;;;14.80;7.27;;;;;;;-145.18;100.00;46652.59;5024581;28;20056;-60
2023/08/22 03:04:24;;;;;;;10.57;7.23;;;;;;;-145.18;100.00;46660.41;5031771;28;20120;-61
2023/08/22 03:06:49;;;;;;;15.70;7.97;;;;;;;-145.18;100.00;46658.44;5024722;28;20084;-59
2023/08/22 03:09:16;;;;;;;13.97;8.20;;;;;;;-145.18;100.00;46660.41;5024717;28;20026;-60
2023/08/22 03:11:41;;;;;;;10.97;6.90;;;;;;;-145.18;100.00;46650.63;5024490;28;20037;-60
2023/08/22 03:14:07;;;;;;;11.83;8.07;;;;;;;-145.18;100.00;46656.50;5032557;28;20496;-60
2023/08/22 03:16:32;;;;;;;13.27;8.30;;;;;;;-145.18;100.00;46652.59;5021552;28;20116;-60
2023/08/22 03:18:58;;;;;;;12.50;6.80;;;;;;;-145.18;100.00;46656.50;5017223;28;20065;-60
2023/08/22 03:21:24;;;;;;;16.60;7.40;;;;;;;-145.18;100.00;46650.63;5022137;28;20044;-60
2023/08/22 03:23:49;;;;;;;11.23;7.10;;;;;;;-145.18;100.00;46656.50;5023615;28;20548;-60
2023/08/22 03:26:14;;;;;;;14.27;7.37;;;;;;;-145.18;100.00;46652.59;5018108;28;20030;-60
2023/08/22 03:28:40;;;;;;;17.03;9.23;;;;;;;-145.18;100.00;46654.53;5015322;28;20042;-60
2023/08/22 03:31:05;;;;;;;12.30;7.87;;;;;;;-145.18;100.00;46656.50;5017132;28;20084;-60
2023/08/22 03:33:33;;;;;;;15.77;7.33;;;;;;;-145.18;100.00;46658.44;5015648;28;20036;-60
2023/08/22 03:35:59;;;;;;;11.83;7.53;;;;;;;-145.18;100.00;46658.44;5022008;28;20116;-60
2023/08/22 03:38:25;;;;;;;10.13;7.13;;;;;;;-145.18;100.00;46656.50;5028995;28;20037;-60
2023/08/22 03:40:52;;;;;;;9.57;6.53;;;;;;;-145.18;100.00;46658.44;5032469;28;20041;-60
2023/08/22 03:43:20;;;;;;;12.80;6.93;;;;;;;-145.18;100.00;46660.41;5022554;28;20104;-60
2023/08/22 03:45:46;;;;;;;9.63;7.20;;;;;;;-145.18;100.00;46656.50;5028933;28;20046;-59
2023/08/22 03:48:11;;;;;;;13.53;8.17;;;;;;;-145.18;100.00;46654.53;5030799;28;20041;-60
2023/08/22 03:50:41;;;;;;;10.60;7.07;;;;;;;-145.18;100.00;46658.44;5029903;28;20077;-60
2023/08/22 03:53:08;;;;;;;13.60;6.83;;;;;;;-145.18;100.00;46654.53;5030551;28;20040;-60
2023/08/22 03:55:34;;;;;;;18.50;6.40;;;;;;;-145.18;100.00;46656.50;5029677;28;20044;-60
2023/08/22 03:57:59;;;;;;;11.97;6.53;;;;;;;-145.18;100.00;46658.44;5030349;28;20445;-60
2023/08/22 04:00:26;;;;;;;12.43;6.47;;;;;;;-145.18;100.00;46660.41;5030254;28;20048;-60
2023/08/22 04:02:56;;;;;;;9.50;6.37;;;;;;;-145.18;100.00;46660.41;5030378;28;20040;-60
2023/08/22 04:05:22;;;;;;;11.50;6.57;;;;;;;-145.18;100.00;46660.41;5029761;28;20050;-60
2023/08/22 04:07:48;;;;;;;10.93;5.60;;;;;;;-145.18;100.00;46660.41;5029301;28;20049;-60
2023/08/22 04:10:14;;;;;;;8.77;5.70;;;;;;;-145.18;100.00;46654.53;5028194;28;20481;-60
2023/08/22 04:12:39;;;;;;;9.93;5.70;;;;;;;-145.18;100.00;46660.41;5031763;28;20242;-60
2023/08/22 04:15:05;;;;;;;8.00;5.60;;;;;;;-145.18;100.00;46660.41;5037909;28;20485;-60
2023/08/22 04:17:30;;;;;;;9.20;5.60;;;;;;;-145.18;100.00;46660.41;5031372;28;20045;-60
2023/08/22 04:19:56;;;;;;;10.60;5.20;;;;;;;-145.18;100.00;46660.41;5033727;28;20029;-60
2023/08/22 04:22:21;;;;;;;11.33;5.20;;;;;;;-145.18;100.00;46660.41;5029930;28;20037;-60
2023/08/22 04:24:46;;;;;;;12.53;7.10;;;;;;;-145.18;100.00;46660.41;5027969;28;20035;-59
2023/08/22 04:27:12;;;;;;;9.47;5.60;;;;;;;-145.18;100.00;46660.41;5024835;28;20069;-60
2023/08/22 04:29:37;;;;;;;6.73;5.13;;;;;;;-145.18;100.00;46660.41;5025032;28;20033;-60
2023/08/22 04:32:03;;;;;;;6.63;4.47;;;;;;;-145.18;100.00;46660.41;5030300;28;20099;-59
2023/08/22 04:34:29;;;;;;;10.37;4.53;;;;;;;-145.18;100.00;46660.41;5024473;28;20029;-60
2023/08/22 04:36:54;;;;;;;10.10;5.47;;;;;;;-145.18;100.00;46660.41;5029595;28;20060;-60
2023/08/22 04:39:20;;;;;;;11.30;6.30;;;;;;;-145.18;100.00;46660.41;5024974;28;20030;-60
2023/08/22 04:41:45;;;;;;;7.97;5.07;;;;;;;-145.18;100.00;46660.41;5025572;28;20029;-60
2023/08/22 04:44:11;;;;;;;13.50;6.40;;;;;;;-145.18;100.00;46660.41;5037165;28;20053;-60
2023/08/22 04:46:36;;;;;;;10.17;6.03;;;;;;;-145.18;100.00;46658.44;5032596;28;20049;-60
2023/08/22 04:49:02;;;;;;;9.93;5.83;;;;;;;-145.18;100.00;46660.41;5027035;28;20040;-60
2023/08/22 04:51:27;;;;;;;8.97;5.73;;;;;;;-145.18;100.00;46660.41;5031183;28;20030;-60
2023/08/22 04:53:53;;;;;;;7.40;5.83;;;;;;;-145.18;100.00;46658.44;5029112;28;20030;-60
2023/08/22 04:56:19;;;;;;;9.63;5.80;;;;;;;-145.18;100.00;46660.41;5031371;28;20044;-60
2023/08/22 04:58:44;;;;;;;7.77;5.27;;;;;;;-145.18;100.00;46660.41;5028999;28;20037;-60
2023/08/22 05:01:10;;;;;;;11.43;5.40;;;;;;;-145.18;100.00;46660.41;5028016;28;20029;-60
2023/08/22 05:03:35;;;;;;;9.80;5.00;;;;;;;-145.18;100.00;46660.41;5023222;28;20454;-62
2023/08/22 05:06:01;;;;;;;6.73;5.00;;;;;;;-145.18;100.00;46660.41;5027389;28;20025;-63
2023/08/22 05:08:27;;;;;;;12.40;5.43;;;;;;;-145.18;100.00;46660.41;5025971;28;20034;-62
2023/08/22 05:10:52;;;;;;;9.53;5.33;;;;;;;-145.18;100.00;46658.44;5034356;28;20048;-62
2023/08/22 05:13:17;;;;;;;6.40;4.87;;;;;;;-145.18;100.00;46660.41;5018979;28;20037;-62
2023/08/22 05:15:43;;;;;;;10.30;6.17;;;;;;;-145.18;100.00;46660.41;5025222;28;20034;-63
2023/08/22 05:18:08;;;;;;;8.40;6.23;;;;;;;-145.18;100.00;46660.41;5030521;28;20037;-62
2023/08/22 05:20:34;;;;;;;7.40;5.30;;;;;;;-145.18;100.00;46660.41;5030806;28;20087;-62
2023/08/22 05:22:59;;;;;;;7.63;5.10;;;;;;;-145.18;100.00;46660.41;5026158;28;20057;-62
2023/08/22 05:25:25;;;;;;;9.67;5.83;;;;;;;-145.18;100.00;46660.41;5031470;28;20353;-63
2023/08/22 05:27:50;;;;;;;11.97;5.20;;;;;;;-145.18;100.00;46660.41;5021659;28;20389;-63
2023/08/22 05:30:16;;;;;;;9.57;5.47;;;;;;;-145.18;100.00;46660.41;5017134;28;20026;-63
2023/08/22 05:32:41;;;;;;;10.20;5.63;;;;;;;-145.18;100.00;46660.41;5029042;28;20029;-62
2023/08/22 05:35:07;;;;;;;8.33;5.90;;;;;;;-145.18;100.00;46660.41;5017690;28;20072;-63
2023/08/22 05:37:32;;;;;;;11.77;5.33;;;;;;;-145.18;100.00;46660.41;5021978;28;20037;-62
2023/08/22 05:39:58;;;;;;;12.40;6.17;;;;;;;-145.18;100.00;46660.41;5021984;28;20061;-63
2023/08/22 05:42:23;;;;;;;11.70;6.00;;;;;;;-145.18;100.00;46623.28;5031294;28;20033;-62
2023/08/22 05:44:48;;;;;;;15.33;6.20;;;;;;;-145.18;100.00;46660.41;5025118;28;20062;-63
2023/08/22 05:47:14;;;;;;;13.90;5.87;;;;;;;-145.18;100.00;46660.41;5029095;28;20042;-62
2023/08/22 05:49:43;;;;;;;9.53;5.80;;;;;;;-145.18;100.00;46660.41;4997270;28;20485;-63
2023/08/22 05:52:08;;;;;;;8.77;5.60;;;;;;;-145.18;100.00;46660.41;5026539;28;20034;-63
2023/08/22 05:54:34;;;;;;;7.87;5.80;;;;;;;-145.18;100.00;46631.09;5033884;28;20040;-63
2023/08/22 05:56:59;;;;;;;12.63;6.13;;;;;;;-145.18;100.00;46660.41;5024007;28;20220;-63
2023/08/22 05:59:25;;;;;;;9.30;5.77;;;;;;;-145.18;100.00;46660.41;5025622;28;20101;-62
2023/08/22 06:01:51;;;;;;;11.90;6.50;;;;;;;-145.18;100.00;46660.41;5022047;28;20029;-63
2023/08/22 06:04:19;;;;;;;9.90;6.20;;;;;;;-145.18;100.00;46625.22;5023209;28;20065;-63
2023/08/22 06:06:45;;;;;;;10.83;6.93;;;;;;;-145.18;100.00;46627.19;5023064;28;20475;-63
2023/08/22 06:09:11;;;;;;;15.27;7.13;;;;;;;-145.18;100.00;46627.19;5019116;28;20041;-63
2023/08/22 06:11:37;;;;;;;11.33;6.50;;;;;;;-145.18;100.00;46625.22;5023465;28;20049;-62
2023/08/22 06:14:03;;;;;;;13.83;6.67;;;;;;;-145.18;100.00;46625.22;5022131;28;20057;-60
2023/08/22 06:16:29;;;;;;;11.23;7.20;;;;;;;-145.18;100.00;46625.22;5026489;28;20420;-60
2023/08/22 06:18:54;;;;;;;13.67;7.30;;;;;;;-145.18;100.00;46629.13;5032694;28;20045;-60
2023/08/22 06:21:19;;;;;;;11.37;7.03;;;;;;;-145.18;100.00;46629.13;5032670;28;20038;-60
2023/08/22 06:23:45;;;;;;;10.23;6.90;;;;;;;-145.18;100.00;46625.22;5020541;28;20119;-60
2023/08/22 06:26:11;;;;;;;15.33;7.03;;;;;;;-145.18;100.00;46631.09;5021201;28;20439;-60
2023/08/22 06:28:36;;;;;;;12.73;6.73;;;;;;;-145.18;100.00;46631.09;5033544;28;20037;-60
2023/08/22 06:31:03;;;;;;;16.03;7.17;;;;;;;-145.18;100.00;46633.06;5029755;28;20535;-60
2023/08/22 06:33:28;;;;;;;15.40;7.70;;;;;;;-145.18;100.00;46635.00;5026062;28;20451;-60
2023/08/22 06:35:54;;;;;;;11.07;7.20;;;;;;;-145.18;100.00;46633.06;5026419;28;20488;-60
2023/08/22 06:38:19;;;;;;;14.17;6.70;;;;;;;-145.18;100.00;46636.94;5017015;28;20155;-60
2023/08/22 06:40:44;;;;;;;14.00;6.70;;;;;;;-145.18;100.00;46636.94;5032220;28;20389;-60
2023/08/22 06:43:10;;;;;;;13.60;5.90;;;;;;;-145.18;100.00;46638.91;5025784;28;20042;-60
2023/08/22 06:45:35;;;;;;;12.97;6.03;;;;;;;-145.18;100.00;46640.88;5029312;28;20496;-60
2023/08/22 06:48:00;;;;;;;9.93;5.90;;;;;;;-145.18;100.00;46640.88;5007699;28;20071;-60
2023/08/22 06:50:26;;;;;;;12.13;6.20;;;;;;;-145.18;100.00;46644.78;5032531;28;20116;-60
2023/08/22 06:52:51;;;;;;;10.90;5.53;;;;;;;-145.18;100.00;46648.69;5027476;28;20637;-60
2023/08/22 06:55:17;;;;;;;7.67;5.50;;;;;;;-145.18;100.00;46640.88;5035271;28;20029;-60
2023/08/22 06:57:42;;;;;;;13.97;5.80;;;;;;;-145.18;100.00;46646.72;5028290;28;20032;-60
2023/08/22 07:00:14;;;;;;;14.47;5.93;;;;;;;-145.18;100.00;46644.78;5037136;28;20068;-60
2023/08/22 07:02:43;;;;;;;11.33;5.60;;;;;;;-145.18;100.00;46648.69;5024259;28;20025;-60
2023/08/22 07:05:10;;;;;;;10.13;5.47;;;;;;;-145.18;100.00;46644.78;5029202;28;20029;-60
2023/08/22 07:07:36;;;;;;;11.30;5.27;;;;;;;-145.18;100.00;46646.72;5025590;28;20030;-60
2023/08/22 07:10:04;;;;;;;12.90;5.40;;;;;;;-145.18;100.00;46648.69;5032613;28;20120;-60
2023/08/22 07:12:30;;;;;;;12.30;4.70;;;;;;;-145.18;100.00;46652.59;5026931;28;20037;-60
2023/08/22 07:14:55;;;;;;;10.20;4.87;;;;;;;-145.18;100.00;46662.34;5011692;28;20182;-60
2023/08/22 07:17:20;;;;;;;11.40;5.23;;;;;;;-145.18;100.00;46662.34;5022504;28;20037;-60
2023/08/22 07:19:46;;;;;;;8.33;4.87;;;;;;;-145.18;100.00;46664.31;5032789;28;20035;-60
2023/08/22 07:22:11;;;;;;;8.40;4.30;;;;;;;-145.18;100.00;46666.25;5022109;28;20032;-62
2023/08/22 07:24:37;;;;;;;8.33;4.43;;;;;;;-145.18;100.00;46670.16;5027618;28;20116;-63
2023/08/22 07:27:02;;;;;;;8.97;4.80;;;;;;;-145.18;100.00;46668.22;5031615;28;20037;-63
2023/08/22 07:29:27;;;;;;;8.47;4.40;;;;;;;-145.18;100.00;46672.13;5029285;28;20116;-63
2023/08/22 07:31:58;;;;;;;12.10;4.83;;;;;;;-145.18;100.00;46674.06;5019086;28;20466;-62
2023/08/22 07:34:24;;;;;;;10.77;5.73;;;;;;;-145.18;100.00;46668.22;5026864;28;20025;-62
2023/08/22 07:36:49;;;;;;;10.23;4.87;;;;;;;-145.18;100.00;46664.31;5029722;28;20048;-63
2023/08/22 07:39:15;;;;;;;9.47;4.57;;;;;;;-145.18;100.00;46668.22;5026346;28;20107;-62
2023/08/22 07:41:40;;;;;;;9.83;4.47;;;;;;;-145.18;100.00;46668.22;5018709;28;20047;-63
2023/08/22 07:44:06;;;;;;;8.40;4.33;;;;;;;-145.18;100.00;46672.13;5026972;28;20046;-62
2023/08/22 07:46:32;;;;;;;12.03;4.67;;;;;;;-145.18;100.00;46666.25;5022628;28;20042;-62
2023/08/22 07:48:58;;;;;;;9.93;4.73;;;;;;;-145.18;100.00;46668.22;5021164;28;20026;-62
2023/08/22 07:51:23;;;;;;;12.27;5.50;;;;;;;-145.18;100.00;46672.13;5020369;28;20124;-62
2023/08/22 07:53:49;;;;;;;9.03;5.30;;;;;;;-145.18;100.00;46668.22;5028201;28;20072;-62
2023/08/22 07:56:14;;;;;;;10.17;5.23;;;;;;;-145.18;100.00;46672.13;5015779;28;20021;-62
2023/08/22 07:58:40;;;;;;;10.93;5.60;;;;;;;-145.18;100.00;46672.13;5021698;28;20056;-63
2023/08/22 08:01:05;;;;;;;9.43;4.80;;;;;;;-145.18;100.00;46670.16;5020978;28;20072;-62
2023/08/22 08:03:31;;;;;;;8.30;5.30;;;;;;;-145.18;100.00;46664.31;5020098;28;20022;-62
2023/08/22 08:05:58;;;;;;;11.70;5.27;;;;;;;-145.18;100.00;46664.31;5025996;28;20029;-63
2023/08/22 08:08:23;;;;;;;9.43;5.63;;;;;;;-145.18;100.00;46668.22;5025345;28;20057;-62
2023/08/22 08:10:49;;;;;;;8.93;5.90;;;;;;;-145.18;100.00;46662.34;5028658;28;20030;-62
2023/08/22 08:13:14;;;;;;;11.07;5.77;;;;;;;-145.18;100.00;46672.13;5029118;28;20053;-63
2023/08/22 08:15:41;;;;;;;11.93;5.80;;;;;;;-145.18;100.00;46670.16;5025964;28;20179;-63
2023/08/22 08:18:07;;;;;;;11.83;6.33;;;;;;;-145.18;100.00;46668.22;5021210;28;20036;-63
2023/08/22 08:20:32;;;;;;;11.47;5.73;;;;;;;-145.18;100.00;46666.25;5025383;28;20038;-63
2023/08/22 08:22:58;;;;;;;12.83;4.77;;;;;;;-145.18;100.00;46668.22;5024200;28;20133;-62
2023/08/22 08:25:23;;;;;;;7.37;4.80;;;;;;;-145.18;100.00;46668.22;5027282;28;20117;-63
2023/08/22 08:27:49;;;;;;;10.07;4.93;;;;;;;-145.18;100.00;46672.13;5024130;28;20036;-63
2023/08/22 08:30:14;;;;;;;8.27;3.70;;;;;;;-145.18;100.00;46674.06;5029914;28;20083;-62
2023/08/22 08:32:39;;;;;;;5.73;2.77;;;;;;;-145.18;100.00;46670.16;5028975;28;20041;-60
2023/08/22 08:35:06;;;;;;;9.77;3.37;;;;;;;-145.18;100.00;46662.34;5013596;28;20076;-59
2023/08/22 08:37:32;;;;;;;5.83;3.47;;;;;;;-145.18;100.00;46654.53;5027369;28;20033;-59
2023/08/22 08:39:57;;;;;;;6.93;3.23;;;;;;;-145.18;100.00;46662.34;5024455;28;20044;-59
2023/08/22 08:42:24;;;;;;;9.33;4.30;;;;;;;-145.18;100.00;46664.31;5026441;28;20049;-59
2023/08/22 08:44:50;;;;;;;11.90;5.13;;;;;;;-145.18;100.00;46670.16;5024235;28;20066;-59
2023/08/22 08:47:16;;;;;;;11.17;5.17;;;;;;;-145.18;100.00;46664.31;5032337;28;20069;-60
2023/08/22 08:49:41;;;;;;;11.37;5.40;;;;;;;-145.18;100.00;46660.41;5027211;28;20056;-59
2023/08/22 08:52:08;;;;;;;12.33;5.27;;;;;;;-145.18;100.00;46631.09;5029891;28;20044;-59
2023/08/22 08:54:34;;;;;;;13.43;5.37;;;;;;;-145.18;100.00;46595.94;5028627;28;20053;-59
2023/08/22 08:57:00;;;;;;;12.50;5.70;;;;;;;-145.18;100.00;46644.78;5029716;28;20481;-60
2023/08/22 08:59:27;;;;;;;8.83;5.40;;;;;;;-145.18;100.00;46551.00;5029425;28;20057;-59
2023/08/22 09:01:52;;;;;;;9.10;4.70;;;;;;;-145.18;100.00;46533.44;5028113;28;20393;-59
2023/08/22 09:04:19;;;;;;;11.80;5.53;;;;;;;-145.18;100.00;46535.38;5024329;28;20038;-59
2023/08/22 09:06:47;;;;;;;7.87;4.50;;;;;;;-145.18;100.00;46535.38;5027630;28;20064;-59
2023/08/22 09:09:14;;;;;;;5.63;3.37;;;;;;;-145.18;100.00;46539.28;5023378;28;20033;-59
2023/08/22 09:11:42;;;;;;;8.27;3.77;;;;;;;-145.18;100.00;46543.19;5026012;28;20064;-60
2023/08/22 09:14:08;;;;;;;5.60;3.10;;;;;;;-145.18;100.00;46543.19;5021763;28;20541;-59
2023/08/22 09:16:34;;;;;;;7.73;3.60;;;;;;;-145.18;100.00;46539.28;5025239;28;20413;-60
2023/08/22 09:19:02;;;;;;;7.83;3.80;;;;;;;-145.18;100.00;46519.75;5022141;28;20033;-60
2023/08/22 09:21:28;;;;;;;6.93;4.00;;;;;;;-145.18;100.00;46535.38;5022000;28;20036;-60
2023/08/22 09:24:08;;;;;;;6.17;3.40;;;;;;;-145.18;100.00;46535.38;5021830;28;20500;-59
2023/08/22 09:26:34;;;;;;;6.30;3.37;;;;;;;-145.18;100.00;46552.97;5027260;28;20029;-59
2023/08/22 09:29:06;;;;;;;7.20;3.53;;;;;;;-145.18;100.00;46574.44;5017515;28;20052;-59
2023/08/22 09:31:33;;;;;;;6.53;3.80;;;;;;;-145.18;100.00;46539.28;5029606;28;20112;-60
2023/08/22 09:33:58;;;;;;;7.53;4.05;;;;;;;-145.18;100.00;46560.78;5026634;28;20025;-61
2023/08/22 09:36:24;;;;;;;8.23;3.90;;;;;;;-145.18;100.00;46554.91;5029654;28;20528;-59
2023/08/22 09:38:51;;;;;;;9.00;4.40;;;;;;;-145.18;100.00;46543.19;5025057;28;20040;-59
2023/08/22 09:41:24;;;;;;;5.93;3.22;;;;;;;-145.18;100.00;46552.97;5016309;28;20061;-59
2023/08/22 09:43:54;;;;;;;7.07;2.72;;;;;;;-145.18;100.00;46584.22;5027588;28;20053;-60
2023/08/22 09:46:21;;;;;;;8.50;4.40;;;;;;;-145.18;100.00;46560.78;5032553;28;20067;-59
2023/08/22 09:48:50;;;;;;;9.85;3.67;;;;;;;-145.18;100.00;46513.91;5031352;28;20042;-59
2023/08/22 09:51:20;;;;;;;8.93;3.85;;;;;;;-145.18;100.00;46527.56;5034086;28;20469;-59
2023/08/22 09:53:51;;;;;;;6.80;4.65;;;;;;;-145.18;100.00;46543.19;5030295;28;20125;-59
2023/08/22 09:56:18;;;;;;;7.18;3.83;;;;;;;-145.18;100.00;46517.81;5034241;28;20032;-59
2023/08/22 09:58:44;;;;;;;5.20;3.47;;;;;;;-145.18;100.00;47090.16;5030003;28;20056;-60
2023/08/22 10:01:13;;;;;;;9.23;4.30;;;;;;;-145.18;100.00;47123.38;5032460;28;20504;-60
2023/08/22 10:03:40;;;;;;;10.15;4.00;;;;;;;-145.18;100.00;47137.03;5030547;28;20512;-60
2023/08/22 10:06:12;;;;;;;9.48;3.60;;;;;;;-145.18;100.00;46631.09;5032459;28;20036;-59
2023/08/22 10:08:42;;;;;;;6.53;4.03;;;;;;;-145.18;100.00;46797.13;5030093;28;20367;-60
2023/08/22 10:11:10;;;;;;;6.88;3.75;;;;;;;-145.18;100.00;46767.84;5030198;28;20037;-60
2023/08/22 10:13:36;;;;;;;5.05;3.17;;;;;;;-145.18;100.00;46572.50;5037718;28;20489;-59
2023/08/22 10:16:02;;;;;;;11.30;4.70;;;;;;;-145.18;100.00;46543.19;5029726;28;20083;-60
2023/08/22 10:18:29;;;;;;;12.40;4.53;;;;;;;-145.18;100.00;46543.19;5031792;28;20026;-60
2023/08/22 10:20:55;;;;;;;6.28;3.72;;;;;;;-145.18;100.00;46529.53;5020244;28;20042;-60
2023/08/22 10:23:51;;;;;;;6.10;2.85;;;;;;;-145.18;100.00;46793.22;5029953;28;20071;-60
2023/08/22 10:26:19;;;;;;;4.70;2.65;;;;;;;-145.18;100.00;46838.16;5030507;28;20517;-60
2023/08/22 10:28:44;;;;;;;8.00;4.00;;;;;;;-145.18;100.00;46719.00;5031188;28;20038;-60
2023/08/22 10:31:11;;;;;;;8.32;3.38;;;;;;;-145.18;100.00;46609.59;5030615;28;20026;-60
2023/08/22 10:33:37;;;;;;;6.40;2.67;;;;;;;-145.18;100.00;46789.31;5031092;28;20045;-60
2023/08/22 10:36:07;;;;;;;3.78;2.63;;;;;;;-145.18;100.00;46804.94;5028519;28;20448;-60
2023/08/22 10:38:53;;;;;;;6.40;2.70;;;;;;;-145.18;100.00;46992.47;5031307;28;20477;-59
2023/08/22 10:41:23;;;;;;;5.35;2.55;;;;;;;-145.18;100.00;46687.75;5029068;28;20490;-59
2023/08/22 10:43:49;;;;;;;4.82;3.08;;;;;;;-145.18;100.00;46533.44;5029745;28;20077;-59
2023/08/22 10:46:14;;;;;;;7.30;3.80;;;;;;;-145.18;100.00;46547.09;5030218;28;20469;-59
2023/08/22 10:48:40;;;;;;;9.27;4.03;;;;;;;-145.18;100.00;46531.47;5023181;28;20095;-59
2023/08/22 10:51:07;;;;;;;7.50;4.05;;;;;;;-145.18;100.00;46527.56;5023689;28;20091;-60
2023/08/22 10:53:43;;;;;;;6.22;3.38;;;;;;;-145.18;100.00;47051.09;5020562;28;20040;-59
2023/08/22 10:56:25;;;;;;;5.93;3.33;;;;;;;-145.18;100.00;46625.22;5017673;28;20038;-60
2023/08/22 10:59:00;;;;;;;4.95;3.38;;;;;;;-145.18;100.00;46617.41;5026439;28;20084;-60
2023/08/22 11:01:26;;;;;;;6.35;3.28;;;;;;;-145.18;100.00;46539.28;5023181;28;20083;-60